PWSweather.com
Personal Weather Stations
Station Observations

SkegnessGB

Lat: 53.147585, Lon: 0.345774

Elevation: 18

Station Type: Fine Offset WH3080

http://www.skegnessweather.info/

High Low Average
Temperature 51.3°F10.7°C 40.3°F4.6°C 46.0°F7.8°C
Dew Point 47.5°F8.6°C 33.1°F0.6°C 38.7°F3.7°C
Winds 23.8 mph 38.3 kmh 7.7 mph 12.4 kmh 14.0 mph SSW22.5 kmh SSW
Wind Gusts 26.8 mph43.1 kmh 9.1 mph14.6 kmh 16.0 mph25.7 kmh
Humidity 89% 60% 76%
Pressure 29.48 in998.3 mb 29.13 in986.5 mb -
Precipitation 0.13 in3.3 mm - -
Hour Temp Dew Point Humidity Winds Wind Gusts Pressure Precip Precip Rate Daily Precip Total
12:00 AM 48.2°F9.0°C 42.6°F5.9°C 81% 14.8 mph SSW23.8 kmh SSW 16.0 mph25.7 kmh 29.48 in998.3 mb 0.00 in0.0 mm 0.00 in0.0 mm 0.00 in0.0 mm
12:10 AM 48.2°F9.0°C 43.0°F6.1°C 82% 16.6 mph WSW26.7 kmh WSW 16.7 mph26.9 kmh 29.46 in997.6 mb 0.00 in0.0 mm 0.00 in0.0 mm 0.00 in0.0 mm
12:20 AM 48.2°F9.0°C 43.0°F6.1°C 82% 21.3 mph S34.3 kmh S 22.6 mph36.4 kmh 29.45 in997.3 mb 0.00 in0.0 mm 0.00 in0.0 mm 0.00 in0.0 mm
12:30 AM 48.4°F9.1°C 43.5°F6.4°C 83% 21.2 mph SSW34.1 kmh SSW 23.4 mph37.7 kmh 29.43 in996.6 mb 0.00 in0.0 mm 0.00 in0.0 mm 0.00 in0.0 mm
12:40 AM 48.2°F9.0°C 43.6°F6.4°C 84% 19.5 mph SE31.4 kmh SE 20.9 mph33.6 kmh 29.42 in996.3 mb 0.01 in0.3 mm 0.06 in1.5 mm 0.01 in0.3 mm
12:50 AM 48.2°F9.0°C 43.6°F6.4°C 84% 21.5 mph S34.6 kmh S 22.6 mph36.4 kmh 29.41 in995.9 mb 0.02 in0.5 mm 0.06 in1.5 mm 0.02 in0.5 mm
01:00 AM 48.2°F9.0°C 43.9°F6.6°C 85% 22.1 mph S35.6 kmh S 23.4 mph37.7 kmh 29.40 in995.6 mb 0.05 in1.3 mm 0.04 in1.0 mm 0.05 in1.3 mm
01:10 AM 48.2°F9.0°C 44.2°F6.8°C 86% 23.8 mph SW38.3 kmh SW 20.2 mph32.5 kmh 29.39 in995.3 mb 0.07 in1.8 mm 0.12 in3.0 mm 0.07 in1.8 mm
01:20 AM 48.2°F9.0°C 44.5°F6.9°C 87% 20.0 mph SW32.2 kmh SW 26.8 mph43.1 kmh 29.38 in994.9 mb 0.08 in2.0 mm 0.06 in1.5 mm 0.09 in2.3 mm
01:30 AM 48.2°F9.0°C 44.5°F6.9°C 87% 19.6 mph SSW31.5 kmh SSW 23.4 mph37.7 kmh 29.39 in995.3 mb 0.09 in2.3 mm 0.06 in1.5 mm 0.09 in2.3 mm
01:40 AM 48.2°F9.0°C 44.8°F7.1°C 88% 16.3 mph SW26.2 kmh SW 17.5 mph28.2 kmh 29.39 in995.3 mb 0.08 in2.0 mm 0.00 in0.0 mm 0.09 in2.3 mm
01:50 AM 48.4°F9.1°C 45.0°F7.2°C 88% 17.9 mph SW28.8 kmh SW 17.5 mph28.2 kmh 29.37 in994.6 mb 0.07 in1.8 mm 0.00 in0.0 mm 0.09 in2.3 mm
02:00 AM 48.4°F9.1°C 45.0°F7.2°C 88% 19.2 mph SW30.9 kmh SW 21.7 mph34.9 kmh 29.36 in994.2 mb 0.06 in1.5 mm 0.00 in0.0 mm 0.11 in2.8 mm
02:10 AM 48.4°F9.1°C 45.0°F7.2°C 88% 17.4 mph S28.0 kmh S 21.7 mph34.9 kmh 29.35 in993.9 mb 0.04 in1.0 mm 0.00 in0.0 mm 0.11 in2.8 mm
02:20 AM 48.7°F9.3°C 45.6°F7.6°C 89% 19.8 mph SW31.9 kmh SW 22.6 mph36.4 kmh 29.34 in993.6 mb 0.01 in0.3 mm 0.00 in0.0 mm 0.11 in2.8 mm
02:30 AM 48.7°F9.3°C 45.6°F7.6°C 89% 19.9 mph S32.0 kmh S 22.6 mph36.4 kmh 29.33 in993.2 mb 0.01 in0.3 mm 0.00 in0.0 mm 0.11 in2.8 mm
02:40 AM 48.9°F9.4°C 45.5°F7.5°C 88% 18.6 mph SW29.9 kmh SW 20.2 mph32.5 kmh 29.33 in993.2 mb 0.01 in0.3 mm 0.00 in0.0 mm 0.11 in2.8 mm
02:50 AM 49.1°F9.5°C 45.7°F7.6°C 88% 19.0 mph SW30.6 kmh SW 20.2 mph32.5 kmh 29.33 in993.2 mb 0.01 in0.3 mm 0.00 in0.0 mm 0.11 in2.8 mm
03:00 AM 49.3°F9.6°C 45.9°F7.7°C 88% 20.5 mph SW33.0 kmh SW 24.4 mph39.3 kmh 29.31 in992.6 mb 0.00 in0.0 mm 0.00 in0.0 mm 0.11 in2.8 mm
03:10 AM 49.5°F9.7°C 45.8°F7.7°C 87% 20.5 mph SE33.0 kmh SE 17.5 mph28.2 kmh 29.31 in992.6 mb 0.00 in0.0 mm 0.00 in0.0 mm 0.11 in2.8 mm
03:20 AM 49.5°F9.7°C 45.8°F7.7°C 87% 17.2 mph SW27.7 kmh SW 17.5 mph28.2 kmh 29.30 in992.2 mb 0.00 in0.0 mm 0.00 in0.0 mm 0.11 in2.8 mm
03:30 AM 49.6°F9.8°C 45.9°F7.7°C 87% 23.0 mph SSW37.0 kmh SSW 25.8 mph41.5 kmh 29.29 in991.9 mb 0.00 in0.0 mm 0.00 in0.0 mm 0.11 in2.8 mm
03:40 AM 49.8°F9.9°C 45.8°F7.7°C 86% 19.5 mph SW31.4 kmh SW 20.9 mph33.6 kmh 29.29 in991.9 mb 0.00 in0.0 mm 0.00 in0.0 mm 0.11 in2.8 mm
03:50 AM 50.0°F10.0°C 46.0°F7.8°C 86% 20.4 mph SSW32.8 kmh SSW 20.9 mph33.6 kmh 29.28 in991.5 mb 0.00 in0.0 mm 0.00 in0.0 mm 0.11 in2.8 mm
04:00 AM 50.2°F10.1°C 46.2°F7.9°C 86% 20.4 mph SW32.8 kmh SW 20.9 mph33.6 kmh 29.27 in991.2 mb 0.00 in0.0 mm 0.00 in0.0 mm 0.11 in2.8 mm
04:10 AM 50.2°F10.1°C 46.2°F7.9°C 86% 19.6 mph SE31.5 kmh SE 18.5 mph29.8 kmh 29.27 in991.2 mb 0.00 in0.0 mm 0.00 in0.0 mm 0.11 in2.8 mm
04:20 AM 50.2°F10.1°C 45.8°F7.7°C 85% 17.1 mph SSW27.5 kmh SSW 16.7 mph26.9 kmh 29.26 in990.9 mb 0.00 in0.0 mm 0.00 in0.0 mm 0.11 in2.8 mm
04:30 AM 50.2°F10.1°C 46.2°F7.9°C 86% 17.4 mph S28.0 kmh S 18.5 mph29.8 kmh 29.25 in990.5 mb 0.00 in0.0 mm 0.00 in0.0 mm 0.11 in2.8 mm
04:40 AM 50.2°F10.1°C 46.2°F7.9°C 86% 17.5 mph S28.2 kmh S 18.5 mph29.8 kmh 29.25 in990.5 mb 0.00 in0.0 mm 0.00 in0.0 mm 0.11 in2.8 mm
04:50 AM 50.4°F10.2°C 46.3°F7.9°C 86% 14.6 mph WSW23.5 kmh WSW 17.5 mph28.2 kmh 29.25 in990.5 mb 0.00 in0.0 mm 0.00 in0.0 mm 0.11 in2.8 mm
05:00 AM 50.5°F10.3°C 46.5°F8.1°C 86% 14.4 mph SSW23.2 kmh SSW 16.7 mph26.9 kmh 29.26 in990.9 mb 0.00 in0.0 mm 0.00 in0.0 mm 0.11 in2.8 mm
05:10 AM 50.9°F10.5°C 47.2°F8.4°C 87% 16.0 mph SW25.7 kmh SW 16.7 mph26.9 kmh 29.26 in990.9 mb 0.00 in0.0 mm 0.00 in0.0 mm 0.11 in2.8 mm
05:20 AM 51.1°F10.6°C 47.3°F8.5°C 87% 14.1 mph SSW22.7 kmh SSW 16.7 mph26.9 kmh 29.26 in990.9 mb 0.00 in0.0 mm 0.00 in0.0 mm 0.11 in2.8 mm
05:30 AM 51.3°F10.7°C 47.5°F8.6°C 87% 14.4 mph SW23.2 kmh SW 16.0 mph25.7 kmh 29.27 in991.2 mb 0.00 in0.0 mm 0.00 in0.0 mm 0.11 in2.8 mm
05:40 AM 51.3°F10.7°C 46.9°F8.3°C 85% 13.4 mph SW21.6 kmh SW 14.3 mph23.0 kmh 29.28 in991.5 mb 0.00 in0.0 mm 0.00 in0.0 mm 0.11 in2.8 mm
05:50 AM 51.3°F10.7°C 46.3°F7.9°C 83% 14.7 mph SW23.7 kmh SW 16.0 mph25.7 kmh 29.28 in991.5 mb 0.00 in0.0 mm 0.00 in0.0 mm 0.11 in2.8 mm
06:00 AM 51.1°F10.6°C 44.8°F7.1°C 79% 15.5 mph SW24.9 kmh SW 16.7 mph26.9 kmh 29.29 in991.9 mb 0.00 in0.0 mm 0.00 in0.0 mm 0.11 in2.8 mm
06:10 AM 50.9°F10.5°C 42.9°F6.1°C 74% 18.1 mph S29.1 kmh S 19.2 mph30.9 kmh 29.30 in992.2 mb 0.00 in0.0 mm 0.00 in0.0 mm 0.11 in2.8 mm
06:20 AM 49.5°F9.7°C 41.5°F5.3°C 74% 14.3 mph SW23.0 kmh SW 19.2 mph30.9 kmh 29.32 in992.9 mb 0.01 in0.3 mm 0.06 in1.5 mm 0.12 in3.0 mm
06:30 AM 47.8°F8.8°C 40.3°F4.6°C 75% 10.7 mph SSW17.2 kmh SSW 10.8 mph17.4 kmh 29.32 in992.9 mb 0.02 in0.5 mm 0.06 in1.5 mm 0.13 in3.3 mm
06:40 AM 47.3°F8.5°C 40.5°F4.7°C 77% 11.7 mph WSW18.8 kmh WSW 13.3 mph21.4 kmh 29.32 in992.9 mb 0.02 in0.5 mm 0.00 in0.0 mm 0.13 in3.3 mm
06:50 AM 47.5°F8.6°C 41.3°F5.2°C 79% 10.9 mph SW17.5 kmh SW 17.5 mph28.2 kmh 29.32 in992.9 mb 0.02 in0.5 mm 0.00 in0.0 mm 0.13 in3.3 mm
07:00 AM 47.5°F8.6°C 41.3°F5.2°C 79% 8.7 mph WSW14.0 kmh WSW 10.8 mph17.4 kmh 29.32 in992.9 mb 0.02 in0.5 mm 0.00 in0.0 mm 0.13 in3.3 mm
07:10 AM 47.5°F8.6°C 41.3°F5.2°C 79% 7.7 mph WSW12.4 kmh WSW 10.1 mph16.3 kmh 29.33 in993.2 mb 0.02 in0.5 mm 0.00 in0.0 mm 0.13 in3.3 mm
07:20 AM 47.1°F8.4°C 40.6°F4.8°C 78% 9.0 mph SW14.5 kmh SW 10.1 mph16.3 kmh 29.33 in993.2 mb 0.01 in0.3 mm 0.00 in0.0 mm 0.13 in3.3 mm
07:30 AM 46.9°F8.3°C 40.4°F4.7°C 78% 9.5 mph S15.3 kmh S 13.3 mph21.4 kmh 29.34 in993.6 mb 0.00 in0.0 mm 0.00 in0.0 mm 0.13 in3.3 mm
07:40 AM 46.9°F8.3°C 40.1°F4.5°C 77% 10.4 mph WNW16.7 kmh WNW 12.5 mph20.1 kmh 29.34 in993.6 mb 0.00 in0.0 mm 0.00 in0.0 mm 0.13 in3.3 mm
07:50 AM 46.8°F8.2°C 39.9°F4.4°C 77% 12.8 mph NW20.6 kmh NW 13.3 mph21.4 kmh 29.33 in993.2 mb 0.00 in0.0 mm 0.00 in0.0 mm 0.13 in3.3 mm
08:00 AM 46.6°F8.1°C 39.1°F3.9°C 75% 14.3 mph SW23.0 kmh SW 16.7 mph26.9 kmh 29.34 in993.6 mb 0.00 in0.0 mm 0.00 in0.0 mm 0.13 in3.3 mm
08:10 AM 46.4°F8.0°C 38.6°F3.7°C 74% 10.2 mph SSW16.4 kmh SSW 15.0 mph24.1 kmh 29.34 in993.6 mb 0.00 in0.0 mm 0.00 in0.0 mm 0.13 in3.3 mm
08:20 AM 46.0°F7.8°C 37.9°F3.3°C 73% 12.3 mph NW19.8 kmh NW 16.0 mph25.7 kmh 29.35 in993.9 mb 0.00 in0.0 mm 0.00 in0.0 mm 0.13 in3.3 mm
08:30 AM 45.9°F7.7°C 37.7°F3.2°C 73% 12.4 mph SSW20.0 kmh SSW 13.3 mph21.4 kmh 29.35 in993.9 mb 0.00 in0.0 mm 0.00 in0.0 mm 0.13 in3.3 mm
08:40 AM 45.7°F7.6°C 37.2°F2.9°C 72% 12.5 mph SSE20.1 kmh SSE 14.3 mph23.0 kmh 29.35 in993.9 mb 0.00 in0.0 mm 0.00 in0.0 mm 0.13 in3.3 mm
08:50 AM 45.5°F7.5°C 37.3°F2.9°C 73% 11.0 mph SW17.7 kmh SW 13.3 mph21.4 kmh 29.36 in994.2 mb 0.00 in0.0 mm 0.00 in0.0 mm 0.13 in3.3 mm
09:00 AM 45.3°F7.4°C 37.2°F2.9°C 73% 9.1 mph WSW14.6 kmh WSW 11.8 mph19.0 kmh 29.36 in994.2 mb 0.00 in0.0 mm 0.00 in0.0 mm 0.13 in3.3 mm
09:10 AM 45.3°F7.4°C 37.2°F2.9°C 73% 10.4 mph E16.7 kmh E 10.8 mph17.4 kmh 29.36 in994.2 mb 0.00 in0.0 mm 0.00 in0.0 mm 0.13 in3.3 mm
09:20 AM 45.5°F7.5°C 37.7°F3.2°C 74% 9.5 mph SSW15.3 kmh SSW 10.1 mph16.3 kmh 29.36 in994.2 mb 0.00 in0.0 mm 0.00 in0.0 mm 0.13 in3.3 mm
09:30 AM 45.5°F7.5°C 37.7°F3.2°C 74% 9.3 mph SSW15.0 kmh SSW 9.1 mph14.6 kmh 29.36 in994.2 mb 0.00 in0.0 mm 0.00 in0.0 mm 0.13 in3.3 mm
09:40 AM 45.7°F7.6°C 37.9°F3.3°C 74% 10.4 mph S16.7 kmh S 9.1 mph14.6 kmh 29.36 in994.2 mb 0.00 in0.0 mm 0.00 in0.0 mm 0.13 in3.3 mm
09:50 AM 46.0°F7.8°C 38.2°F3.4°C 74% 12.3 mph SSE19.8 kmh SSE 15.0 mph24.1 kmh 29.36 in994.2 mb 0.00 in0.0 mm 0.00 in0.0 mm 0.13 in3.3 mm
10:00 AM 46.6°F8.1°C 38.4°F3.6°C 73% 12.6 mph SW20.3 kmh SW 11.8 mph19.0 kmh 29.36 in994.2 mb 0.00 in0.0 mm 0.00 in0.0 mm 0.13 in3.3 mm
10:10 AM 46.8°F8.2°C 38.2°F3.4°C 72% 12.3 mph SSW19.8 kmh SSW 11.8 mph19.0 kmh 29.35 in993.9 mb 0.00 in0.0 mm 0.00 in0.0 mm 0.13 in3.3 mm
10:20 AM 47.1°F8.4°C 37.8°F3.2°C 70% 12.7 mph S20.4 kmh S 14.3 mph23.0 kmh 29.36 in994.2 mb 0.00 in0.0 mm 0.00 in0.0 mm 0.13 in3.3 mm
10:30 AM 47.3°F8.5°C 38.0°F3.3°C 70% 12.7 mph S20.4 kmh S 14.3 mph23.0 kmh 29.36 in994.2 mb 0.00 in0.0 mm 0.00 in0.0 mm 0.13 in3.3 mm
10:40 AM 47.7°F8.7°C 38.4°F3.6°C 70% 12.1 mph SW19.5 kmh SW 16.0 mph25.7 kmh 29.36 in994.2 mb 0.00 in0.0 mm 0.00 in0.0 mm 0.13 in3.3 mm
10:50 AM 47.8°F8.8°C 38.5°F3.6°C 70% 14.5 mph SW23.3 kmh SW 15.0 mph24.1 kmh 29.36 in994.2 mb 0.00 in0.0 mm 0.00 in0.0 mm 0.13 in3.3 mm
11:00 AM 47.7°F8.7°C 38.0°F3.3°C 69% 14.3 mph SW23.0 kmh SW 15.0 mph24.1 kmh 29.35 in993.9 mb 0.00 in0.0 mm 0.00 in0.0 mm 0.13 in3.3 mm
11:10 AM 47.8°F8.8°C 37.8°F3.2°C 68% 13.6 mph NE21.9 kmh NE 11.8 mph19.0 kmh 29.35 in993.9 mb 0.00 in0.0 mm 0.00 in0.0 mm 0.13 in3.3 mm
11:20 AM 48.0°F8.9°C 38.3°F3.5°C 69% 12.7 mph SW20.4 kmh SW 14.3 mph23.0 kmh 29.35 in993.9 mb 0.00 in0.0 mm 0.00 in0.0 mm 0.13 in3.3 mm
11:30 AM 48.2°F9.0°C 38.1°F3.4°C 68% 14.7 mph SW23.7 kmh SW 15.0 mph24.1 kmh 29.34 in993.6 mb 0.00 in0.0 mm 0.00 in0.0 mm 0.13 in3.3 mm
11:40 AM 48.2°F9.0°C 38.1°F3.4°C 68% 14.0 mph SSW22.5 kmh SSW 19.2 mph30.9 kmh 29.34 in993.6 mb 0.00 in0.0 mm 0.00 in0.0 mm 0.13 in3.3 mm
11:50 AM 48.4°F9.1°C 37.9°F3.3°C 67% 12.5 mph S20.1 kmh S 16.7 mph26.9 kmh 29.34 in993.6 mb 0.00 in0.0 mm 0.00 in0.0 mm 0.13 in3.3 mm
12:00 PM 48.7°F9.3°C 37.9°F3.3°C 66% 13.0 mph WNW20.9 kmh WNW 13.3 mph21.4 kmh 29.33 in993.2 mb 0.00 in0.0 mm 0.00 in0.0 mm 0.13 in3.3 mm
12:10 PM 49.1°F9.5°C 38.2°F3.4°C 66% 13.2 mph SW21.2 kmh SW 17.5 mph28.2 kmh 29.34 in993.6 mb 0.00 in0.0 mm 0.00 in0.0 mm 0.13 in3.3 mm
12:20 PM 48.9°F9.4°C 37.7°F3.2°C 65% 15.2 mph S24.5 kmh S 14.3 mph23.0 kmh 29.32 in992.9 mb 0.00 in0.0 mm 0.00 in0.0 mm 0.13 in3.3 mm
12:30 PM 48.7°F9.3°C 37.5°F3.1°C 65% 15.0 mph SE24.1 kmh SE 19.2 mph30.9 kmh 29.32 in992.9 mb 0.00 in0.0 mm 0.00 in0.0 mm 0.13 in3.3 mm
12:40 PM 48.7°F9.3°C 37.1°F2.8°C 64% 16.2 mph SSW26.1 kmh SSW 16.0 mph25.7 kmh 29.32 in992.9 mb 0.00 in0.0 mm 0.00 in0.0 mm 0.13 in3.3 mm
12:50 PM 48.6°F9.2°C 37.3°F2.9°C 65% 15.0 mph WSW24.1 kmh WSW 15.0 mph24.1 kmh 29.31 in992.6 mb 0.00 in0.0 mm 0.00 in0.0 mm 0.13 in3.3 mm
01:00 PM 48.7°F9.3°C 37.1°F2.8°C 64% 16.7 mph S26.9 kmh S 16.7 mph26.9 kmh 29.31 in992.6 mb 0.00 in0.0 mm 0.00 in0.0 mm 0.13 in3.3 mm
01:10 PM 48.7°F9.3°C 37.1°F2.8°C 64% 12.5 mph ENE20.1 kmh ENE 13.3 mph21.4 kmh 29.30 in992.2 mb 0.00 in0.0 mm 0.00 in0.0 mm 0.13 in3.3 mm
01:20 PM 48.7°F9.3°C 36.7°F2.6°C 63% 13.8 mph S22.2 kmh S 15.0 mph24.1 kmh 29.30 in992.2 mb 0.00 in0.0 mm 0.00 in0.0 mm 0.13 in3.3 mm
01:30 PM 48.7°F9.3°C 36.3°F2.4°C 62% 14.1 mph S22.7 kmh S 17.5 mph28.2 kmh 29.31 in992.6 mb 0.00 in0.0 mm 0.00 in0.0 mm 0.13 in3.3 mm
01:40 PM 48.7°F9.3°C 35.5°F1.9°C 60% 15.9 mph WSW25.6 kmh WSW 20.2 mph32.5 kmh 29.31 in992.6 mb 0.00 in0.0 mm 0.00 in0.0 mm 0.13 in3.3 mm
01:50 PM 48.6°F9.2°C 35.7°F2.1°C 61% 12.7 mph NW20.4 kmh NW 18.5 mph29.8 kmh 29.30 in992.2 mb 0.00 in0.0 mm 0.00 in0.0 mm 0.13 in3.3 mm
02:00 PM 48.2°F9.0°C 35.4°F1.9°C 61% 11.9 mph SW19.2 kmh SW 15.0 mph24.1 kmh 29.30 in992.2 mb 0.00 in0.0 mm 0.00 in0.0 mm 0.13 in3.3 mm
02:10 PM 48.0°F8.9°C 35.2°F1.8°C 61% 12.6 mph SW20.3 kmh SW 15.0 mph24.1 kmh 29.30 in992.2 mb 0.00 in0.0 mm 0.00 in0.0 mm 0.13 in3.3 mm
02:20 PM 47.5°F8.6°C 35.1°F1.7°C 62% 10.7 mph SSE17.2 kmh SSE 14.3 mph23.0 kmh 29.29 in991.9 mb 0.00 in0.0 mm 0.00 in0.0 mm 0.13 in3.3 mm
02:30 PM 47.5°F8.6°C 35.1°F1.7°C 62% 11.2 mph SSW18.0 kmh SSW 13.3 mph21.4 kmh 29.30 in992.2 mb 0.00 in0.0 mm 0.00 in0.0 mm 0.13 in3.3 mm
02:40 PM 47.3°F8.5°C 34.9°F1.6°C 62% 13.0 mph SSW20.9 kmh SSW 13.3 mph21.4 kmh 29.29 in991.9 mb 0.00 in0.0 mm 0.00 in0.0 mm 0.13 in3.3 mm
02:50 PM 47.3°F8.5°C 34.9°F1.6°C 62% 12.0 mph SSW19.3 kmh SSW 13.3 mph21.4 kmh 29.28 in991.5 mb 0.00 in0.0 mm 0.00 in0.0 mm 0.13 in3.3 mm
03:00 PM 46.9°F8.3°C 34.6°F1.4°C 62% 12.6 mph SW20.3 kmh SW 16.7 mph26.9 kmh 29.28 in991.5 mb 0.00 in0.0 mm 0.00 in0.0 mm 0.13 in3.3 mm
03:10 PM 46.6°F8.1°C 34.7°F1.5°C 63% 8.4 mph SE13.5 kmh SE 16.7 mph26.9 kmh 29.28 in991.5 mb 0.00 in0.0 mm 0.00 in0.0 mm 0.13 in3.3 mm
03:20 PM 46.2°F7.9°C 34.3°F1.3°C 63% 12.1 mph SW19.5 kmh SW 16.7 mph26.9 kmh 29.28 in991.5 mb 0.00 in0.0 mm 0.00 in0.0 mm 0.13 in3.3 mm
03:30 PM 45.9°F7.7°C 34.4°F1.3°C 64% 10.1 mph SW16.3 kmh SW 10.8 mph17.4 kmh 29.28 in991.5 mb 0.00 in0.0 mm 0.00 in0.0 mm 0.13 in3.3 mm
03:40 PM 45.9°F7.7°C 34.0°F1.1°C 63% 11.0 mph SW17.7 kmh SW 16.0 mph25.7 kmh 29.27 in991.2 mb 0.00 in0.0 mm 0.00 in0.0 mm 0.13 in3.3 mm
03:50 PM 45.5°F7.5°C 33.6°F0.9°C 63% 10.3 mph WSW16.6 kmh WSW 12.5 mph20.1 kmh 29.27 in991.2 mb 0.00 in0.0 mm 0.00 in0.0 mm 0.13 in3.3 mm
04:00 PM 45.3°F7.4°C 33.5°F0.8°C 63% 13.0 mph SW20.9 kmh SW 13.3 mph21.4 kmh 29.28 in991.5 mb 0.00 in0.0 mm 0.00 in0.0 mm 0.13 in3.3 mm
04:10 PM 45.0°F7.2°C 33.1°F0.6°C 63% 15.1 mph SSW24.3 kmh SSW 17.5 mph28.2 kmh 29.27 in991.2 mb 0.00 in0.0 mm 0.00 in0.0 mm 0.13 in3.3 mm
04:20 PM 44.4°F6.9°C 34.9°F1.6°C 69% 12.7 mph SSW20.4 kmh SSW 16.7 mph26.9 kmh 29.27 in991.2 mb 0.00 in0.0 mm 0.00 in0.0 mm 0.13 in3.3 mm
04:30 PM 44.2°F6.8°C 35.1°F1.7°C 70% 13.1 mph SW21.1 kmh SW 11.8 mph19.0 kmh 29.26 in990.9 mb 0.00 in0.0 mm 0.00 in0.0 mm 0.13 in3.3 mm
04:40 PM 44.1°F6.7°C 34.9°F1.6°C 70% 12.8 mph SSW20.6 kmh SSW 14.3 mph23.0 kmh 29.26 in990.9 mb 0.00 in0.0 mm 0.00 in0.0 mm 0.13 in3.3 mm
04:50 PM 43.9°F6.6°C 35.1°F1.7°C 71% 11.4 mph SSW18.3 kmh SSW 14.3 mph23.0 kmh 29.25 in990.5 mb 0.00 in0.0 mm 0.00 in0.0 mm 0.13 in3.3 mm
05:00 PM 43.5°F6.4°C 34.7°F1.5°C 71% 12.7 mph S20.4 kmh S 12.5 mph20.1 kmh 29.24 in990.2 mb 0.00 in0.0 mm 0.00 in0.0 mm 0.13 in3.3 mm
05:10 PM 43.3°F6.3°C 34.9°F1.6°C 72% 12.7 mph NW20.4 kmh NW 10.1 mph16.3 kmh 29.24 in990.2 mb 0.00 in0.0 mm 0.00 in0.0 mm 0.13 in3.3 mm
05:20 PM 43.3°F6.3°C 34.9°F1.6°C 72% 13.9 mph S22.4 kmh S 14.3 mph23.0 kmh 29.24 in990.2 mb 0.00 in0.0 mm 0.00 in0.0 mm 0.13 in3.3 mm
05:30 PM 43.3°F6.3°C 34.9°F1.6°C 72% 14.5 mph SW23.3 kmh SW 16.0 mph25.7 kmh 29.24 in990.2 mb 0.00 in0.0 mm 0.00 in0.0 mm 0.13 in3.3 mm
05:40 PM 43.0°F6.1°C 34.6°F1.4°C 72% 13.7 mph WSW22.0 kmh WSW 14.3 mph23.0 kmh 29.23 in989.8 mb 0.00 in0.0 mm 0.00 in0.0 mm 0.13 in3.3 mm
05:50 PM 42.3°F5.7°C 34.2°F1.2°C 73% 13.7 mph S22.0 kmh S 13.3 mph21.4 kmh 29.23 in989.8 mb 0.00 in0.0 mm 0.00 in0.0 mm 0.13 in3.3 mm
06:00 PM 42.1°F5.6°C 34.7°F1.5°C 75% 12.8 mph SW20.6 kmh SW 15.0 mph24.1 kmh 29.23 in989.8 mb 0.00 in0.0 mm 0.00 in0.0 mm 0.13 in3.3 mm
06:10 PM 42.1°F5.6°C 35.1°F1.7°C 76% 13.3 mph WSW21.4 kmh WSW 15.0 mph24.1 kmh 29.23 in989.8 mb 0.00 in0.0 mm 0.00 in0.0 mm 0.13 in3.3 mm
06:20 PM 42.3°F5.7°C 35.6°F2.0°C 77% 13.1 mph SSW21.1 kmh SSW 15.0 mph24.1 kmh 29.23 in989.8 mb 0.00 in0.0 mm 0.00 in0.0 mm 0.13 in3.3 mm
06:30 PM 42.1°F5.6°C 35.7°F2.1°C 78% 11.4 mph S18.3 kmh S 12.5 mph20.1 kmh 29.23 in989.8 mb 0.00 in0.0 mm 0.00 in0.0 mm 0.13 in3.3 mm
06:40 PM 42.3°F5.7°C 35.9°F2.2°C 78% 12.9 mph SW20.8 kmh SW 16.7 mph26.9 kmh 29.23 in989.8 mb 0.00 in0.0 mm 0.00 in0.0 mm 0.13 in3.3 mm
06:50 PM 42.4°F5.8°C 35.4°F1.9°C 76% 14.4 mph S23.2 kmh S 13.3 mph21.4 kmh 29.22 in989.5 mb 0.00 in0.0 mm 0.00 in0.0 mm 0.13 in3.3 mm
07:00 PM 42.6°F5.9°C 35.2°F1.8°C 75% 14.4 mph SSW23.2 kmh SSW 19.2 mph30.9 kmh 29.22 in989.5 mb 0.00 in0.0 mm 0.00 in0.0 mm 0.13 in3.3 mm
07:10 PM 42.4°F5.8°C 35.1°F1.7°C 75% 13.2 mph SSE21.2 kmh SSE 15.0 mph24.1 kmh 29.21 in989.2 mb 0.00 in0.0 mm 0.00 in0.0 mm 0.13 in3.3 mm
07:20 PM 42.3°F5.7°C 34.9°F1.6°C 75% 14.7 mph S23.7 kmh S 15.0 mph24.1 kmh 29.21 in989.2 mb 0.00 in0.0 mm 0.00 in0.0 mm 0.13 in3.3 mm
07:30 PM 41.9°F5.5°C 34.9°F1.6°C 76% 11.5 mph SSW18.5 kmh SSW 12.5 mph20.1 kmh 29.20 in988.8 mb 0.00 in0.0 mm 0.00 in0.0 mm 0.13 in3.3 mm
07:40 PM 41.7°F5.4°C 35.0°F1.7°C 77% 12.6 mph SW20.3 kmh SW 13.3 mph21.4 kmh 29.20 in988.8 mb 0.00 in0.0 mm 0.00 in0.0 mm 0.13 in3.3 mm
07:50 PM 41.5°F5.3°C 35.2°F1.8°C 78% 12.1 mph WSW19.5 kmh WSW 13.3 mph21.4 kmh 29.20 in988.8 mb 0.00 in0.0 mm 0.00 in0.0 mm 0.13 in3.3 mm
08:00 PM 41.4°F5.2°C 35.3°F1.8°C 79% 12.8 mph SW20.6 kmh SW 13.3 mph21.4 kmh 29.19 in988.5 mb 0.00 in0.0 mm 0.00 in0.0 mm 0.13 in3.3 mm
08:10 PM 41.2°F5.1°C 35.5°F1.9°C 80% 11.6 mph SW18.7 kmh SW 12.5 mph20.1 kmh 29.19 in988.5 mb 0.00 in0.0 mm 0.00 in0.0 mm 0.13 in3.3 mm
08:20 PM 41.0°F5.0°C 35.3°F1.8°C 80% 12.6 mph SSW20.3 kmh SSW 13.3 mph21.4 kmh 29.19 in988.5 mb 0.00 in0.0 mm 0.00 in0.0 mm 0.13 in3.3 mm
08:30 PM 41.0°F5.0°C 35.3°F1.8°C 80% 11.5 mph SSW18.5 kmh SSW 11.8 mph19.0 kmh 29.18 in988.1 mb 0.00 in0.0 mm 0.00 in0.0 mm 0.13 in3.3 mm
08:40 PM 41.0°F5.0°C 35.0°F1.7°C 79% 12.9 mph SSW20.8 kmh SSW 13.3 mph21.4 kmh 29.18 in988.1 mb 0.00 in0.0 mm 0.00 in0.0 mm 0.13 in3.3 mm
08:50 PM 41.0°F5.0°C 35.0°F1.7°C 79% 11.9 mph WSW19.2 kmh WSW 12.5 mph20.1 kmh 29.18 in988.1 mb 0.00 in0.0 mm 0.00 in0.0 mm 0.13 in3.3 mm
09:00 PM 41.2°F5.1°C 34.8°F1.6°C 78% 14.3 mph S23.0 kmh S 16.0 mph25.7 kmh 29.18 in988.1 mb 0.00 in0.0 mm 0.00 in0.0 mm 0.13 in3.3 mm
09:10 PM 41.0°F5.0°C 34.7°F1.5°C 78% 8.9 mph S14.3 kmh S 11.8 mph19.0 kmh 29.17 in987.8 mb 0.00 in0.0 mm 0.00 in0.0 mm 0.13 in3.3 mm
09:20 PM 40.6°F4.8°C 34.3°F1.3°C 78% 10.1 mph SSW16.3 kmh SSW 11.8 mph19.0 kmh 29.16 in987.5 mb 0.00 in0.0 mm 0.00 in0.0 mm 0.13 in3.3 mm
09:30 PM 40.5°F4.7°C 34.5°F1.4°C 79% 13.1 mph SSW21.1 kmh SSW 12.5 mph20.1 kmh 29.16 in987.5 mb 0.00 in0.0 mm 0.00 in0.0 mm 0.13 in3.3 mm
09:40 PM 40.5°F4.7°C 34.5°F1.4°C 79% 12.1 mph S19.5 kmh S 13.3 mph21.4 kmh 29.16 in987.5 mb 0.00 in0.0 mm 0.00 in0.0 mm 0.13 in3.3 mm
09:50 PM 40.3°F4.6°C 34.6°F1.4°C 80% 11.8 mph SW19.0 kmh SW 15.0 mph24.1 kmh 29.15 in987.1 mb 0.00 in0.0 mm 0.00 in0.0 mm 0.13 in3.3 mm
10:00 PM 40.3°F4.6°C 34.6°F1.4°C 80% 12.8 mph SSW20.6 kmh SSW 13.3 mph21.4 kmh 29.15 in987.1 mb 0.00 in0.0 mm 0.00 in0.0 mm 0.13 in3.3 mm
10:10 PM 40.3°F4.6°C 34.6°F1.4°C 80% 11.3 mph SW18.2 kmh SW 10.8 mph17.4 kmh 29.14 in986.8 mb 0.00 in0.0 mm 0.00 in0.0 mm 0.13 in3.3 mm
10:20 PM 40.3°F4.6°C 34.6°F1.4°C 80% 12.8 mph SSE20.6 kmh SSE 12.5 mph20.1 kmh 29.13 in986.5 mb 0.00 in0.0 mm 0.00 in0.0 mm 0.13 in3.3 mm
10:30 PM 40.3°F4.6°C 34.6°F1.4°C 80% 11.8 mph SSW19.0 kmh SSW 14.3 mph23.0 kmh 29.13 in986.5 mb 0.00 in0.0 mm 0.00 in0.0 mm 0.13 in3.3 mm
10:40 PM 40.5°F4.7°C 35.1°F1.7°C 81% 13.4 mph S21.6 kmh S 15.0 mph24.1 kmh 29.13 in986.5 mb 0.00 in0.0 mm 0.00 in0.0 mm 0.13 in3.3 mm
10:50 PM 40.3°F4.6°C 34.9°F1.6°C 81% 11.9 mph SW19.2 kmh SW 15.0 mph24.1 kmh 29.13 in986.5 mb 0.00 in0.0 mm 0.00 in0.0 mm 0.13 in3.3 mm
11:00 PM 40.3°F4.6°C 34.9°F1.6°C 81% 11.0 mph WSW17.7 kmh WSW 12.5 mph20.1 kmh 29.13 in986.5 mb 0.00 in0.0 mm 0.00 in0.0 mm 0.13 in3.3 mm
11:10 PM 40.5°F4.7°C 35.1°F1.7°C 81% 12.4 mph WSW20.0 kmh WSW 13.3 mph21.4 kmh 29.14 in986.8 mb 0.00 in0.0 mm 0.00 in0.0 mm 0.13 in3.3 mm
11:20 PM 40.5°F4.7°C 35.4°F1.9°C 82% 13.3 mph SSW21.4 kmh SSW 13.3 mph21.4 kmh 29.14 in986.8 mb 0.00 in0.0 mm 0.00 in0.0 mm 0.13 in3.3 mm
11:30 PM 40.5°F4.7°C 35.4°F1.9°C 82% 12.5 mph S20.1 kmh S 13.3 mph21.4 kmh 29.14 in986.8 mb 0.00 in0.0 mm 0.00 in0.0 mm 0.13 in3.3 mm
11:40 PM 40.6°F4.8°C 35.6°F2.0°C 82% 10.3 mph WSW16.6 kmh WSW 10.1 mph16.3 kmh 29.14 in986.8 mb 0.00 in0.0 mm 0.00 in0.0 mm 0.13 in3.3 mm
11:50 PM 40.5°F4.7°C 35.4°F1.9°C 82% 10.1 mph WSW16.3 kmh WSW 12.5 mph20.1 kmh 29.14 in986.8 mb 0.00 in0.0 mm 0.00 in0.0 mm 0.13 in3.3 mm